Aviation Digital Data Service (ADDS)

Output produced by METARs form (1818 UTC 18 April 2019)
found at http://www.aviationweather.gov/metar/data/
 
METAR text: TXKF 181755Z 07011KT 9999 FEW022 SCT053 BKN300 21/15 Q1025
Conditions at: TXKF (BERMUDA NAS , BM) observed 1755 UTC 18 April 2019
Temperature: 21.0°C (70°F)
Dewpoint: 15.0°C (59°F) [RH = 69%]
Pressure (altimeter): 30.27 inches Hg (1025.0 mb)
Winds: from the ENE (70 degrees) at 13 MPH (11 knots; 5.7 m/s)
Visibility: 6 or more miles (10+ km)
Ceiling: 30000 feet AGL
Clouds: few clouds at 2200 feet AGL
scattered clouds at 5300 feet AGL
broken clouds at 30000 feet AGL
Weather: no significant weather observed at this time

METAR text: TXKF 181655Z 07013KT 9999 FEW022 SCT080 BKN300 21/16 Q1025
Conditions at: TXKF (BERMUDA NAS , BM) observed 1655 UTC 18 April 2019
Temperature: 21.0°C (70°F)
Dewpoint: 16.0°C (61°F) [RH = 73%]
Pressure (altimeter): 30.27 inches Hg (1025.0 mb)
Winds: from the ENE (70 degrees) at 15 MPH (13 knots; 6.7 m/s)
Visibility: 6 or more miles (10+ km)
Ceiling: 30000 feet AGL
Clouds: few clouds at 2200 feet AGL
scattered clouds at 8000 feet AGL
broken clouds at 30000 feet AGL
Weather: no significant weather observed at this time

METAR text: TXKF 181628Z 06014KT 9999 FEW020 SCT075 21/16 Q1025
Conditions at: TXKF (BERMUDA NAS , BM) observed 1628 UTC 18 April 2019
Temperature: 21.0°C (70°F)
Dewpoint: 16.0°C (61°F) [RH = 73%]
Pressure (altimeter): 30.27 inches Hg (1025.0 mb)
Winds: from the ENE (60 degrees) at 16 MPH (14 knots; 7.2 m/s)
Visibility: 6 or more miles (10+ km)
Ceiling: at least 12,000 feet AGL
Clouds: few clouds at 2000 feet AGL
scattered clouds at 7500 feet AGL
Weather: no significant weather observed at this time

METAR text: TXKF 181555Z 06012KT 9999 BKN022 BKN075 BKN300 20/15 Q1025
Conditions at: TXKF (BERMUDA NAS , BM) observed 1555 UTC 18 April 2019
Temperature: 20.0°C (68°F)
Dewpoint: 15.0°C (59°F) [RH = 73%]
Pressure (altimeter): 30.27 inches Hg (1025.0 mb)
Winds: from the ENE (60 degrees) at 14 MPH (12 knots; 6.2 m/s)
Visibility: 6 or more miles (10+ km)
Ceiling: 2200 feet AGL
Clouds: broken clouds at 2200 feet AGL
broken clouds at 7500 feet AGL
broken clouds at 30000 feet AGL
Weather: no significant weather observed at this time

METAR text: TXKF 181508Z 06011KT 030V090 9999 BKN021 BKN075 BKN300 21/16 Q1024
Conditions at: TXKF (BERMUDA NAS , BM) observed 1508 UTC 18 April 2019
Temperature: 21.0°C (70°F)
Dewpoint: 16.0°C (61°F) [RH = 73%]
Pressure (altimeter): 30.24 inches Hg (1024.0 mb)
Winds: from the ENE (60 degrees) at 13 MPH (11 knots; 5.7 m/s)
Visibility: 6 or more miles (10+ km)
Ceiling: 2100 feet AGL
Clouds: broken clouds at 2100 feet AGL
broken clouds at 7500 feet AGL
broken clouds at 30000 feet AGL
Weather: no significant weather observed at this time

METAR text: TXKF 181455Z 06010KT 9999 SCT021 BKN075 BKN300 21/16 Q1024 RMK SCT021 V BKN
Conditions at: TXKF (BERMUDA NAS , BM) observed 1455 UTC 18 April 2019
Temperature: 21.0°C (70°F)
Dewpoint: 16.0°C (61°F) [RH = 73%]
Pressure (altimeter): 30.24 inches Hg (1024.0 mb)
Winds: from the ENE (60 degrees) at 12 MPH (10 knots; 5.1 m/s)
Visibility: 6 or more miles (10+ km)
Ceiling: 7500 feet AGL
Clouds: scattered clouds at 2100 feet AGL
broken clouds at 7500 feet AGL
broken clouds at 30000 feet AGL
Weather: no significant weather observed at this time

METAR text: TXKF 181355Z 06009KT 9999 FEW019 FEW072 BKN300 21/16 Q1024
Conditions at: TXKF (BERMUDA NAS , BM) observed 1355 UTC 18 April 2019
Temperature: 21.0°C (70°F)
Dewpoint: 16.0°C (61°F) [RH = 73%]
Pressure (altimeter): 30.24 inches Hg (1024.0 mb)
Winds: from the ENE (60 degrees) at 10 MPH (9 knots; 4.6 m/s)
Visibility: 6 or more miles (10+ km)
Ceiling: 30000 feet AGL
Clouds: few clouds at 1900 feet AGL
few clouds at 7200 feet AGL
broken clouds at 30000 feet AGL
Weather: no significant weather observed at this time

METAR text: TXKF 181255Z 02009KT 350V060 9999 VCSH FEW022 SCT056 21/16 Q1024
Conditions at: TXKF (BERMUDA NAS , BM) observed 1255 UTC 18 April 2019
Temperature: 21.0°C (70°F)
Dewpoint: 16.0°C (61°F) [RH = 73%]
Pressure (altimeter): 30.24 inches Hg (1024.0 mb)
Winds: from the NNE (20 degrees) at 10 MPH (9 knots; 4.6 m/s)
Visibility: 6 or more miles (10+ km)
Ceiling: at least 12,000 feet AGL
Clouds: few clouds at 2200 feet AGL
scattered clouds at 5600 feet AGL
Weather: VCSH  (showers in vicinity)

METAR text: TXKF 181155Z 34006KT 9999 VCSH FEW026 BKN056 BKN300 20/14 Q1023
Conditions at: TXKF (BERMUDA NAS , BM) observed 1155 UTC 18 April 2019
Temperature: 20.0°C (68°F)
Dewpoint: 14.0°C (57°F) [RH = 68%]
Pressure (altimeter): 30.21 inches Hg (1023.0 mb)
Winds: from the NNW (340 degrees) at 7 MPH (6 knots; 3.1 m/s)
Visibility: 6 or more miles (10+ km)
Ceiling: 5600 feet AGL
Clouds: few clouds at 2600 feet AGL
broken clouds at 5600 feet AGL
broken clouds at 30000 feet AGL
Weather: VCSH  (showers in vicinity)

METAR text: TXKF 181055Z 35005KT 9999 FEW026 FEW055 SCT300 19/14 Q1023
Conditions at: TXKF (BERMUDA NAS , BM) observed 1055 UTC 18 April 2019
Temperature: 19.0°C (66°F)
Dewpoint: 14.0°C (57°F) [RH = 73%]
Pressure (altimeter): 30.21 inches Hg (1023.0 mb)
Winds: from the N (350 degrees) at 6 MPH (5 knots; 2.6 m/s)
Visibility: 6 or more miles (10+ km)
Ceiling: at least 12,000 feet AGL
Clouds: few clouds at 2600 feet AGL
few clouds at 5500 feet AGL
scattered clouds at 30000 feet AGL
Weather: no significant weather observed at this time

METAR text: TXKF 180955Z 34004KT 9999 FEW026 FEW300 18/14 Q1022
Conditions at: TXKF (BERMUDA NAS , BM) observed 0955 UTC 18 April 2019
Temperature: 18.0°C (64°F)
Dewpoint: 14.0°C (57°F) [RH = 77%]
Pressure (altimeter): 30.18 inches Hg (1022.0 mb)
Winds: from the NNW (340 degrees) at 5 MPH (4 knots; 2.1 m/s)
Visibility: 6 or more miles (10+ km)
Ceiling: at least 12,000 feet AGL
Clouds: few clouds at 2600 feet AGL
few clouds at 30000 feet AGL
Weather: no significant weather observed at this time

METAR text: TXKF 180855Z 35004KT 9999 SCT025 SCT037 BKN300 19/14 Q1021
Conditions at: TXKF (BERMUDA NAS , BM) observed 0855 UTC 18 April 2019
Temperature: 19.0°C (66°F)
Dewpoint: 14.0°C (57°F) [RH = 73%]
Pressure (altimeter): 30.15 inches Hg (1021.0 mb)
Winds: from the N (350 degrees) at 5 MPH (4 knots; 2.1 m/s)
Visibility: 6 or more miles (10+ km)
Ceiling: 30000 feet AGL
Clouds: scattered clouds at 2500 feet AGL
scattered clouds at 3700 feet AGL
broken clouds at 30000 feet AGL
Weather: no significant weather observed at this time

METAR text: TXKF 180755Z 33005KT 9999 SCT025 SCT033 BKN300 19/14 Q1021
Conditions at: TXKF (BERMUDA NAS , BM) observed 0755 UTC 18 April 2019
Temperature: 19.0°C (66°F)
Dewpoint: 14.0°C (57°F) [RH = 73%]
Pressure (altimeter): 30.15 inches Hg (1021.0 mb)
Winds: from the NNW (330 degrees) at 6 MPH (5 knots; 2.6 m/s)
Visibility: 6 or more miles (10+ km)
Ceiling: 30000 feet AGL
Clouds: scattered clouds at 2500 feet AGL
scattered clouds at 3300 feet AGL
broken clouds at 30000 feet AGL
Weather: no significant weather observed at this time

METAR text: TXKF 180655Z 32004KT 9999 SCT026 SCT300 18/14 Q1021
Conditions at: TXKF (BERMUDA NAS , BM) observed 0655 UTC 18 April 2019
Temperature: 18.0°C (64°F)
Dewpoint: 14.0°C (57°F) [RH = 77%]
Pressure (altimeter): 30.15 inches Hg (1021.0 mb)
Winds: from the NW (320 degrees) at 5 MPH (4 knots; 2.1 m/s)
Visibility: 6 or more miles (10+ km)
Ceiling: at least 12,000 feet AGL
Clouds: scattered clouds at 2600 feet AGL
scattered clouds at 30000 feet AGL
Weather: no significant weather observed at this time

METAR text: TXKF 180555Z 33004KT 300V360 9999 SCT027 BKN300 18/13 Q1021
Conditions at: TXKF (BERMUDA NAS , BM) observed 0555 UTC 18 April 2019
Temperature: 18.0°C (64°F)
Dewpoint: 13.0°C (55°F) [RH = 73%]
Pressure (altimeter): 30.15 inches Hg (1021.0 mb)
Winds: from the NNW (330 degrees) at 5 MPH (4 knots; 2.1 m/s)
Visibility: 6 or more miles (10+ km)
Ceiling: 30000 feet AGL
Clouds: scattered clouds at 2700 feet AGL
broken clouds at 30000 feet AGL
Weather: no significant weather observed at this time

METAR text: TXKF 180455Z 33004KT 9999 SCT027 SCT300 18/13 Q1022
Conditions at: TXKF (BERMUDA NAS , BM) observed 0455 UTC 18 April 2019
Temperature: 18.0°C (64°F)
Dewpoint: 13.0°C (55°F) [RH = 73%]
Pressure (altimeter): 30.18 inches Hg (1022.0 mb)
Winds: from the NNW (330 degrees) at 5 MPH (4 knots; 2.1 m/s)
Visibility: 6 or more miles (10+ km)
Ceiling: at least 12,000 feet AGL
Clouds: scattered clouds at 2700 feet AGL
scattered clouds at 30000 feet AGL
Weather: no significant weather observed at this time

METAR text: TXKF 180355Z 34003KT 9999 SCT029 SCT300 18/13 Q1022
Conditions at: TXKF (BERMUDA NAS , BM) observed 0355 UTC 18 April 2019
Temperature: 18.0°C (64°F)
Dewpoint: 13.0°C (55°F) [RH = 73%]
Pressure (altimeter): 30.18 inches Hg (1022.0 mb)
Winds: from the NNW (340 degrees) at 3 MPH (3 knots; 1.5 m/s)
Visibility: 6 or more miles (10+ km)
Ceiling: at least 12,000 feet AGL
Clouds: scattered clouds at 2900 feet AGL
scattered clouds at 30000 feet AGL
Weather: no significant weather observed at this time

METAR text: TXKF 180255Z 34004KT 9999 SCT030 SCT300 18/13 Q1022
Conditions at: TXKF (BERMUDA NAS , BM) observed 0255 UTC 18 April 2019
Temperature: 18.0°C (64°F)
Dewpoint: 13.0°C (55°F) [RH = 73%]
Pressure (altimeter): 30.18 inches Hg (1022.0 mb)
Winds: from the NNW (340 degrees) at 5 MPH (4 knots; 2.1 m/s)
Visibility: 6 or more miles (10+ km)
Ceiling: at least 12,000 feet AGL
Clouds: scattered clouds at 3000 feet AGL
scattered clouds at 30000 feet AGL
Weather: no significant weather observed at this time

METAR text: TXKF 180155Z 34004KT 9999 SCT030 SCT300 19/13 Q1022
Conditions at: TXKF (BERMUDA NAS , BM) observed 0155 UTC 18 April 2019
Temperature: 19.0°C (66°F)
Dewpoint: 13.0°C (55°F) [RH = 68%]
Pressure (altimeter): 30.18 inches Hg (1022.0 mb)
Winds: from the NNW (340 degrees) at 5 MPH (4 knots; 2.1 m/s)
Visibility: 6 or more miles (10+ km)
Ceiling: at least 12,000 feet AGL
Clouds: scattered clouds at 3000 feet AGL
scattered clouds at 30000 feet AGL
Weather: no significant weather observed at this time

METAR text: TXKF 180055Z 35005KT 9999 FEW032 SCT300 19/12 Q1022
Conditions at: TXKF (BERMUDA NAS , BM) observed 0055 UTC 18 April 2019
Temperature: 19.0°C (66°F)
Dewpoint: 12.0°C (54°F) [RH = 64%]
Pressure (altimeter): 30.18 inches Hg (1022.0 mb)
Winds: from the N (350 degrees) at 6 MPH (5 knots; 2.6 m/s)
Visibility: 6 or more miles (10+ km)
Ceiling: at least 12,000 feet AGL
Clouds: few clouds at 3200 feet AGL
scattered clouds at 30000 feet AGL
Weather: no significant weather observed at this time

METAR text: TXKF 172355Z 34006KT 310V010 9999 SCT032 SCT300 19/13 Q1021
Conditions at: TXKF (BERMUDA NAS , BM) observed 2355 UTC 17 April 2019
Temperature: 19.0°C (66°F)
Dewpoint: 13.0°C (55°F) [RH = 68%]
Pressure (altimeter): 30.15 inches Hg (1021.0 mb)
Winds: from the NNW (340 degrees) at 7 MPH (6 knots; 3.1 m/s)
Visibility: 6 or more miles (10+ km)
Ceiling: at least 12,000 feet AGL
Clouds: scattered clouds at 3200 feet AGL
scattered clouds at 30000 feet AGL
Weather: no significant weather observed at this time

METAR text: TXKF 172255Z 34008KT 9999 FEW032 SCT300 19/12 Q1020
Conditions at: TXKF (BERMUDA NAS , BM) observed 2255 UTC 17 April 2019
Temperature: 19.0°C (66°F)
Dewpoint: 12.0°C (54°F) [RH = 64%]
Pressure (altimeter): 30.12 inches Hg (1020.0 mb)
Winds: from the NNW (340 degrees) at 9 MPH (8 knots; 4.1 m/s)
Visibility: 6 or more miles (10+ km)
Ceiling: at least 12,000 feet AGL
Clouds: few clouds at 3200 feet AGL
scattered clouds at 30000 feet AGL
Weather: no significant weather observed at this time

METAR text: TXKF 172155Z 34008KT 9999 FEW034 20/12 Q1020
Conditions at: TXKF (BERMUDA NAS , BM) observed 2155 UTC 17 April 2019
Temperature: 20.0°C (68°F)
Dewpoint: 12.0°C (54°F) [RH = 60%]
Pressure (altimeter): 30.12 inches Hg (1020.0 mb)
Winds: from the NNW (340 degrees) at 9 MPH (8 knots; 4.1 m/s)
Visibility: 6 or more miles (10+ km)
Ceiling: at least 12,000 feet AGL
Clouds: few clouds at 3400 feet AGL
Weather: no significant weather observed at this time

METAR text: TXKF 172055Z 34007KT 300V010 9999 FEW034 20/12 Q1020
Conditions at: TXKF (BERMUDA NAS , BM) observed 2055 UTC 17 April 2019
Temperature: 20.0°C (68°F)
Dewpoint: 12.0°C (54°F) [RH = 60%]
Pressure (altimeter): 30.12 inches Hg (1020.0 mb)
Winds: from the NNW (340 degrees) at 8 MPH (7 knots; 3.6 m/s)
Visibility: 6 or more miles (10+ km)
Ceiling: at least 12,000 feet AGL
Clouds: few clouds at 3400 feet AGL
Weather: no significant weather observed at this time

METAR text: TXKF 171955Z 32007KT 290V360 9999 FEW034 20/12 Q1020
Conditions at: TXKF (BERMUDA NAS , BM) observed 1955 UTC 17 April 2019
Temperature: 20.0°C (68°F)
Dewpoint: 12.0°C (54°F) [RH = 60%]
Pressure (altimeter): 30.12 inches Hg (1020.0 mb)
Winds: from the NW (320 degrees) at 8 MPH (7 knots; 3.6 m/s)
Visibility: 6 or more miles (10+ km)
Ceiling: at least 12,000 feet AGL
Clouds: few clouds at 3400 feet AGL
Weather: no significant weather observed at this time

METAR text: TXKF 171855Z 32007KT 290V350 9999 FEW035 20/12 Q1020
Conditions at: TXKF (BERMUDA NAS , BM) observed 1855 UTC 17 April 2019
Temperature: 20.0°C (68°F)
Dewpoint: 12.0°C (54°F) [RH = 60%]
Pressure (altimeter): 30.12 inches Hg (1020.0 mb)
Winds: from the NW (320 degrees) at 8 MPH (7 knots; 3.6 m/s)
Visibility: 6 or more miles (10+ km)
Ceiling: at least 12,000 feet AGL
Clouds: few clouds at 3500 feet AGL
Weather: no significant weather observed at this time

METAR text: TXKF 171755Z 34009KT 9999 FEW036 20/12 Q1021
Conditions at: TXKF (BERMUDA NAS , BM) observed 1755 UTC 17 April 2019
Temperature: 20.0°C (68°F)
Dewpoint: 12.0°C (54°F) [RH = 60%]
Pressure (altimeter): 30.15 inches Hg (1021.0 mb)
Winds: from the NNW (340 degrees) at 10 MPH (9 knots; 4.6 m/s)
Visibility: 6 or more miles (10+ km)
Ceiling: at least 12,000 feet AGL
Clouds: few clouds at 3600 feet AGL
Weather: no significant weather observed at this time

METAR text: TXKF 171655Z 34007KT 290V030 9999 FEW036 21/12 Q1021
Conditions at: TXKF (BERMUDA NAS , BM) observed 1655 UTC 17 April 2019
Temperature: 21.0°C (70°F)
Dewpoint: 12.0°C (54°F) [RH = 56%]
Pressure (altimeter): 30.15 inches Hg (1021.0 mb)
Winds: from the NNW (340 degrees) at 8 MPH (7 knots; 3.6 m/s)
Visibility: 6 or more miles (10+ km)
Ceiling: at least 12,000 feet AGL
Clouds: few clouds at 3600 feet AGL
Weather: no significant weather observed at this time

METAR text: TXKF 171555Z 34008KT 300V020 9999 FEW036 SCT300 20/11 Q1021
Conditions at: TXKF (BERMUDA NAS , BM) observed 1555 UTC 17 April 2019
Temperature: 20.0°C (68°F)
Dewpoint: 11.0°C (52°F) [RH = 56%]
Pressure (altimeter): 30.15 inches Hg (1021.0 mb)
Winds: from the NNW (340 degrees) at 9 MPH (8 knots; 4.1 m/s)
Visibility: 6 or more miles (10+ km)
Ceiling: at least 12,000 feet AGL
Clouds: few clouds at 3600 feet AGL
scattered clouds at 30000 feet AGL
Weather: no significant weather observed at this time

METAR text: TXKF 171455Z 36009KT 9999 SCT036 BKN300 20/11 Q1021
Conditions at: TXKF (BERMUDA NAS , BM) observed 1455 UTC 17 April 2019
Temperature: 20.0°C (68°F)
Dewpoint: 11.0°C (52°F) [RH = 56%]
Pressure (altimeter): 30.15 inches Hg (1021.0 mb)
Winds: from the N (360 degrees) at 10 MPH (9 knots; 4.6 m/s)
Visibility: 6 or more miles (10+ km)
Ceiling: 30000 feet AGL
Clouds: scattered clouds at 3600 feet AGL
broken clouds at 30000 feet AGL
Weather: no significant weather observed at this time

METAR text: TXKF 171355Z 35011KT 9999 SCT036 BKN300 20/11 Q1021
Conditions at: TXKF (BERMUDA NAS , BM) observed 1355 UTC 17 April 2019
Temperature: 20.0°C (68°F)
Dewpoint: 11.0°C (52°F) [RH = 56%]
Pressure (altimeter): 30.15 inches Hg (1021.0 mb)
Winds: from the N (350 degrees) at 13 MPH (11 knots; 5.7 m/s)
Visibility: 6 or more miles (10+ km)
Ceiling: 30000 feet AGL
Clouds: scattered clouds at 3600 feet AGL
broken clouds at 30000 feet AGL
Weather: no significant weather observed at this time

METAR text: TXKF 171255Z 33009KT 9999 SCT036 SCT300 20/11 Q1021
Conditions at: TXKF (BERMUDA NAS , BM) observed 1255 UTC 17 April 2019
Temperature: 20.0°C (68°F)
Dewpoint: 11.0°C (52°F) [RH = 56%]
Pressure (altimeter): 30.15 inches Hg (1021.0 mb)
Winds: from the NNW (330 degrees) at 10 MPH (9 knots; 4.6 m/s)
Visibility: 6 or more miles (10+ km)
Ceiling: at least 12,000 feet AGL
Clouds: scattered clouds at 3600 feet AGL
scattered clouds at 30000 feet AGL
Weather: no significant weather observed at this time

METAR text: TXKF 171155Z 32007KT 290V010 9999 BKN036 BKN300 19/11 Q1020
Conditions at: TXKF (BERMUDA NAS , BM) observed 1155 UTC 17 April 2019
Temperature: 19.0°C (66°F)
Dewpoint: 11.0°C (52°F) [RH = 60%]
Pressure (altimeter): 30.12 inches Hg (1020.0 mb)
Winds: from the NW (320 degrees) at 8 MPH (7 knots; 3.6 m/s)
Visibility: 6 or more miles (10+ km)
Ceiling: 3600 feet AGL
Clouds: broken clouds at 3600 feet AGL
broken clouds at 30000 feet AGL
Weather: no significant weather observed at this time

METAR text: TXKF 171055Z 34006KT 9999 BKN036 BKN300 18/11 Q1020
Conditions at: TXKF (BERMUDA NAS , BM) observed 1055 UTC 17 April 2019
Temperature: 18.0°C (64°F)
Dewpoint: 11.0°C (52°F) [RH = 64%]
Pressure (altimeter): 30.12 inches Hg (1020.0 mb)
Winds: from the NNW (340 degrees) at 7 MPH (6 knots; 3.1 m/s)
Visibility: 6 or more miles (10+ km)
Ceiling: 3600 feet AGL
Clouds: broken clouds at 3600 feet AGL
broken clouds at 30000 feet AGL
Weather: no significant weather observed at this time

METAR text: TXKF 170955Z 33007KT 9999 BKN036 BKN300 18/11 Q1020
Conditions at: TXKF (BERMUDA NAS , BM) observed 0955 UTC 17 April 2019
Temperature: 18.0°C (64°F)
Dewpoint: 11.0°C (52°F) [RH = 64%]
Pressure (altimeter): 30.12 inches Hg (1020.0 mb)
Winds: from the NNW (330 degrees) at 8 MPH (7 knots; 3.6 m/s)
Visibility: 6 or more miles (10+ km)
Ceiling: 3600 feet AGL
Clouds: broken clouds at 3600 feet AGL
broken clouds at 30000 feet AGL
Weather: no significant weather observed at this time

METAR text: TXKF 170855Z 34009KT 9999 SCT037 BKN300 18/10 Q1019
Conditions at: TXKF (BERMUDA NAS , BM) observed 0855 UTC 17 April 2019
Temperature: 18.0°C (64°F)
Dewpoint: 10.0°C (50°F) [RH = 59%]
Pressure (altimeter): 30.09 inches Hg (1019.0 mb)
Winds: from the NNW (340 degrees) at 10 MPH (9 knots; 4.6 m/s)
Visibility: 6 or more miles (10+ km)
Ceiling: 30000 feet AGL
Clouds: scattered clouds at 3700 feet AGL
broken clouds at 30000 feet AGL
Weather: no significant weather observed at this time

METAR text: TXKF 170755Z 31008KT 9999 SCT036 BKN300 18/10 Q1019
Conditions at: TXKF (BERMUDA NAS , BM) observed 0755 UTC 17 April 2019
Temperature: 18.0°C (64°F)
Dewpoint: 10.0°C (50°F) [RH = 59%]
Pressure (altimeter): 30.09 inches Hg (1019.0 mb)
Winds: from the NW (310 degrees) at 9 MPH (8 knots; 4.1 m/s)
Visibility: 6 or more miles (10+ km)
Ceiling: 30000 feet AGL
Clouds: scattered clouds at 3600 feet AGL
broken clouds at 30000 feet AGL
Weather: no significant weather observed at this time

METAR text: TXKF 170655Z 32007KT 9999 BKN037 18/10 Q1019
Conditions at: TXKF (BERMUDA NAS , BM) observed 0655 UTC 17 April 2019
Temperature: 18.0°C (64°F)
Dewpoint: 10.0°C (50°F) [RH = 59%]
Pressure (altimeter): 30.09 inches Hg (1019.0 mb)
Winds: from the NW (320 degrees) at 8 MPH (7 knots; 3.6 m/s)
Visibility: 6 or more miles (10+ km)
Ceiling: 3700 feet AGL
Clouds: broken clouds at 3700 feet AGL
Weather: no significant weather observed at this time

Forecast for: TXKF (BERMUDA NAS , BM)
Text: TAF TXKF 181731Z 1818/1918 07013KT 9999 FEW020 SCT075
Forecast period: 1800 UTC 18 April 2019 to 1000 UTC 19 April 2019
Forecast type: FROM: standard forecast or significant change
Winds: from the ENE (70 degrees) at 15 MPH (13 knots; 6.7 m/s)
Visibility: 6 or more miles 10+ km)
Ceiling: at least 12,000 feet AGL
Clouds: few clouds at 2000 feet AGL
scattered clouds at 7500 feet AGL
Weather: no significant weather forecast for this period
Text: BECMG 1910/1914 12015KT
Forecast period: 1000 to 1800 UTC 19 April 2019
Forecast type: BECOMING: Conditions expected to become as follows by 1400 UTC 19 April 2019
Winds: from the ESE (120 degrees) at 17 MPH (15 knots; 7.7 m/s)
Visibility: 6 or more miles 10+ km)
Ceiling: at least 12,000 feet AGL
Clouds: few clouds at 2000 feet AGL
scattered clouds at 7500 feet AGL
Weather: no significant weather forecast for this period